Time;durP1;ratioP1;P1;durP2;ratioP2;P2;SDS_P1;SDS_P2;PMS_P1;PMS_P2;Temp;Humidity;BMP_temperature;BMP_pressure;BME280_temperature;BME280_humidity;BME280_pressure;Samples;Min_cycle;Max_cycle;Signal;HPM_P1;HPM_P2
2024/01/13 00:01:06;;;;;;;0.20;0.20;;;;;;;-2.31;62.87;102070.91;4939425;28;20047;-83
2024/01/13 00:03:32;;;;;;;0.10;0.10;;;;;;;-2.32;63.02;102066.66;4938871;28;20508;-83
2024/01/13 00:05:57;;;;;;;0.10;0.10;;;;;;;-2.31;62.70;102063.31;4939030;28;20485;-83
2024/01/13 00:08:23;;;;;;;0.20;0.20;;;;;;;-2.28;62.74;102063.38;4939013;28;20062;-83
2024/01/13 00:10:49;;;;;;;0.13;0.13;;;;;;;-2.23;62.61;102061.84;4923323;28;20062;-83
2024/01/13 00:13:15;;;;;;;0.20;0.20;;;;;;;-2.24;62.71;102057.59;4972274;28;20073;-83
2024/01/13 00:15:40;;;;;;;0.20;0.20;;;;;;;-2.41;62.58;102061.34;4955087;28;20039;-83
2024/01/13 00:18:06;;;;;;;0.10;0.10;;;;;;;-2.57;62.38;102024.56;4922747;28;20472;-83
2024/01/13 00:20:32;;;;;;;0.20;0.20;;;;;;;-2.45;63.11;102044.34;4954782;28;20049;-83
2024/01/13 00:22:57;;;;;;;0.20;0.20;;;;;;;-2.48;62.13;102039.19;4938905;28;20189;-83
2024/01/13 00:25:23;;;;;;;0.20;0.20;;;;;;;-2.45;63.00;102047.75;4972153;28;20030;-83
2024/01/13 00:27:48;;;;;;;0.20;0.20;;;;;;;-2.43;62.72;102056.22;4971637;28;20030;-83
2024/01/13 00:30:15;;;;;;;0.10;0.10;;;;;;;-2.54;63.15;102059.31;4971530;28;20054;-83
2024/01/13 00:32:40;;;;;;;0.17;0.17;;;;;;;-2.44;63.00;102056.19;4922395;28;20023;-83
2024/01/13 00:35:06;;;;;;;0.20;0.20;;;;;;;-2.54;63.42;102044.09;4954566;28;20046;-83
2024/01/13 00:37:31;;;;;;;0.20;0.20;;;;;;;-2.65;63.24;102037.06;4938543;28;20037;-83
2024/01/13 00:39:57;;;;;;;0.20;0.20;;;;;;;-2.50;63.40;102035.75;4954627;28;20035;-83
2024/01/13 00:42:23;;;;;;;0.20;0.20;;;;;;;-2.46;63.93;102047.66;4954457;28;20035;-83
2024/01/13 00:44:48;;;;;;;0.20;0.20;;;;;;;-2.45;63.06;102060.41;4954429;28;20031;-83
2024/01/13 00:47:14;;;;;;;0.20;0.20;;;;;;;-2.40;62.98;102073.19;4938391;28;20065;-83
2024/01/13 00:49:39;;;;;;;0.20;0.20;;;;;;;-2.52;62.99;102043.31;4971399;28;20180;-83
2024/01/13 00:52:05;;;;;;;0.20;0.20;;;;;;;-2.39;63.77;102069.84;4954843;28;20034;-83
2024/01/13 00:54:30;;;;;;;0.20;0.20;;;;;;;-2.50;63.79;102040.81;4954567;28;20081;-83
2024/01/13 00:56:56;;;;;;;0.10;0.10;;;;;;;-2.39;63.66;102052.09;4938595;28;20043;-83
2024/01/13 00:59:21;;;;;;;0.10;0.10;;;;;;;-2.33;63.54;102057.34;4954232;28;20023;-83
2024/01/13 01:01:47;;;;;;;0.20;0.20;;;;;;;-2.45;63.73;102039.28;4938189;28;20093;-82
2024/01/13 01:04:12;;;;;;;0.20;0.20;;;;;;;-2.31;63.40;102053.16;4938162;28;20027;-82
2024/01/13 01:06:38;;;;;;;0.10;0.10;;;;;;;-2.36;63.23;102044.56;4954522;28;20034;-83
2024/01/13 01:09:06;;;;;;;0.20;0.20;;;;;;;-2.29;63.43;102065.88;4938184;28;20031;-83
2024/01/13 01:11:31;;;;;;;0.20;0.20;;;;;;;-2.31;63.44;102068.38;4954778;28;20027;-82
2024/01/13 01:13:57;;;;;;;0.20;0.20;;;;;;;-2.38;63.24;102063.94;4938394;28;20132;-83
2024/01/13 01:16:22;;;;;;;0.20;0.20;;;;;;;-2.39;62.94;102064.75;4938033;28;20041;-83
2024/01/13 01:18:48;;;;;;;0.20;0.20;;;;;;;-2.24;63.09;102066.88;4938491;28;20382;-83
2024/01/13 01:21:14;;;;;;;0.20;0.20;;;;;;;-2.18;62.92;102069.53;4938163;28;20086;-83
2024/01/13 01:23:40;;;;;;;0.10;0.10;;;;;;;-2.05;62.56;102071.59;4922445;28;20023;-83
2024/01/13 01:26:05;;;;;;;0.10;0.10;;;;;;;-2.11;62.50;102054.53;4938034;28;20034;-83
2024/01/13 01:28:31;;;;;;;0.20;0.20;;;;;;;-2.01;62.47;102073.38;4922247;28;20041;-83
2024/01/13 01:30:56;;;;;;;0.20;0.20;;;;;;;-2.15;63.07;102054.44;4922137;28;20035;-83
2024/01/13 01:33:22;;;;;;;0.20;0.20;;;;;;;-2.13;63.20;102073.94;4938102;28;20493;-82
2024/01/13 01:35:47;;;;;;;0.20;0.20;;;;;;;-2.21;63.14;102052.59;4938136;28;20477;-82
2024/01/13 01:38:13;;;;;;;0.20;0.20;;;;;;;-2.39;62.90;102044.50;4938540;28;20397;-83
2024/01/13 01:40:38;;;;;;;0.10;0.10;;;;;;;-2.32;62.92;102046.38;4953936;28;20473;-83
2024/01/13 01:43:04;;;;;;;0.20;0.20;;;;;;;-2.13;62.67;102078.16;4924458;28;20125;-83
2024/01/13 01:45:30;;;;;;;0.20;0.20;;;;;;;-2.17;62.91;102066.19;4941438;28;20035;-82
2024/01/13 01:47:55;;;;;;;0.10;0.10;;;;;;;-2.06;62.91;102060.59;4925757;28;20035;-83
2024/01/13 01:50:21;;;;;;;0.20;0.20;;;;;;;-2.02;63.12;102062.38;4941766;28;20070;-83
2024/01/13 01:52:46;;;;;;;0.20;0.20;;;;;;;-1.91;62.57;102079.56;4941408;28;20524;-82
2024/01/13 01:55:12;;;;;;;0.20;0.20;;;;;;;-1.90;63.06;102084.66;4941375;28;20027;-82
2024/01/13 01:57:38;;;;;;;0.20;0.20;;;;;;;-2.09;62.80;102059.66;4941533;28;20027;-83
2024/01/13 02:00:06;;;;;;;0.10;0.10;;;;;;;-1.97;62.66;102079.38;4941706;28;20031;-82
2024/01/13 02:02:32;;;;;;;0.20;0.20;;;;;;;-1.99;62.85;102075.94;4941929;28;20035;-82
2024/01/13 02:04:58;;;;;;;0.20;0.20;;;;;;;-2.07;63.01;102063.94;4941247;28;20082;-83
2024/01/13 02:07:24;;;;;;;0.10;0.10;;;;;;;-2.12;63.35;102060.44;4925689;28;20485;-83
2024/01/13 02:09:50;;;;;;;0.10;0.10;;;;;;;-2.15;63.74;102056.97;4941021;28;20031;-83
2024/01/13 02:12:16;;;;;;;0.20;0.20;;;;;;;-2.23;63.56;102066.91;4941411;28;20026;-82
2024/01/13 02:14:41;;;;;;;0.10;0.10;;;;;;;-2.18;63.82;102070.41;4941074;28;20468;-82
2024/01/13 02:17:07;;;;;;;0.20;0.20;;;;;;;-2.25;64.22;102058.41;4957197;28;20070;-82
2024/01/13 02:19:32;;;;;;;0.20;0.20;;;;;;;-2.23;64.52;102059.31;4941560;28;20401;-83
2024/01/13 02:21:59;;;;;;;0.20;0.20;;;;;;;-2.27;64.62;102043.94;4941120;28;20039;-82
2024/01/13 02:24:24;;;;;;;0.10;0.10;;;;;;;-2.10;64.41;102061.31;4925244;28;20069;-83
2024/01/13 02:26:50;;;;;;;0.10;0.10;;;;;;;-2.14;64.92;102057.00;4940845;28;20090;-82
2024/01/13 02:29:15;;;;;;;0.20;0.20;;;;;;;-2.03;64.05;102050.53;4940692;28;20027;-82
2024/01/13 02:31:41;;;;;;;0.10;0.10;;;;;;;-1.87;64.28;102045.81;4956543;28;20039;-83
2024/01/13 02:34:06;;;;;;;0.10;0.10;;;;;;;-1.84;63.89;102036.63;4940841;28;20485;-82
2024/01/13 02:36:32;;;;;;;0.20;0.20;;;;;;;-1.82;63.97;102031.59;4956844;28;20531;-82
2024/01/13 02:38:57;;;;;;;0.20;0.20;;;;;;;-1.82;63.61;102006.22;4956610;28;20540;-82
2024/01/13 02:41:23;;;;;;;0.20;0.20;;;;;;;-1.58;63.15;102044.84;4957010;28;20477;-82
2024/01/13 02:43:49;;;;;;;0.20;0.20;;;;;;;-1.50;63.25;102045.88;4940245;28;20019;-82
2024/01/13 02:46:14;;;;;;;0.20;0.20;;;;;;;-1.60;63.19;102036.34;4924884;28;20393;-83
2024/01/13 02:48:43;;;;;;;0.20;0.20;;;;;;;-1.52;63.72;102050.06;4956677;28;20041;-83
2024/01/13 02:51:13;;;;;;;0.20;0.20;;;;;;;-1.61;63.65;102054.94;4924997;28;20519;-82
2024/01/13 02:53:39;;;;;;;0.10;0.10;;;;;;;-1.57;64.35;102055.88;4940304;28;20037;-82
2024/01/13 02:56:05;;;;;;;0.10;0.10;;;;;;;-1.53;64.15;102047.50;4940404;28;20026;-82
2024/01/13 02:58:30;;;;;;;0.10;0.10;;;;;;;-1.59;64.07;102043.13;4973363;28;20023;-82
2024/01/13 03:00:56;;;;;;;0.20;0.20;;;;;;;-1.50;63.61;102056.03;4956514;28;20110;-82
2024/01/13 03:03:21;;;;;;;0.10;0.10;;;;;;;-1.50;64.25;102040.81;4956404;28;20077;-82
2024/01/13 03:05:47;;;;;;;0.20;0.20;;;;;;;-1.56;63.85;102050.84;4939989;28;20101;-83
2024/01/13 03:08:12;;;;;;;0.20;0.20;;;;;;;-1.64;63.88;102051.47;4940276;28;20035;-82
2024/01/13 03:10:38;;;;;;;0.20;0.20;;;;;;;-1.74;63.69;102032.63;4955947;28;20031;-82
2024/01/13 03:13:04;;;;;;;0.10;0.10;;;;;;;-1.79;64.13;102031.66;4939795;28;20034;-82
2024/01/13 03:15:29;;;;;;;0.20;0.20;;;;;;;-1.63;63.85;102056.56;4940272;28;20105;-82
2024/01/13 03:17:55;;;;;;;0.20;0.20;;;;;;;-1.63;63.97;102040.50;4940064;28;20049;-82
2024/01/13 03:20:20;;;;;;;0.20;0.20;;;;;;;-1.46;64.16;102041.75;4939986;28;20489;-82
2024/01/13 03:22:46;;;;;;;0.20;0.20;;;;;;;-1.54;63.68;102031.41;4924154;28;20512;-82
2024/01/13 03:25:11;;;;;;;0.20;0.20;;;;;;;-1.46;63.47;102045.16;4923754;28;20511;-82
2024/01/13 03:27:37;;;;;;;0.20;0.20;;;;;;;-1.49;64.46;102034.03;4939703;28;20023;-82
2024/01/13 03:30:03;;;;;;;0.20;0.20;;;;;;;-1.47;64.16;102015.50;4972934;28;20117;-82
2024/01/13 03:32:29;;;;;;;0.20;0.20;;;;;;;-1.61;64.16;102009.25;4939444;28;20401;-82
2024/01/13 03:34:54;;;;;;;0.20;0.20;;;;;;;-1.39;64.24;102020.72;4972878;28;20042;-82
2024/01/13 03:37:20;;;;;;;0.20;0.20;;;;;;;-1.56;64.56;102000.06;4939520;28;20541;-82
2024/01/13 03:39:45;;;;;;;0.20;0.20;;;;;;;-1.55;64.27;102004.31;4939897;28;20457;-82
2024/01/13 03:42:11;;;;;;;0.10;0.10;;;;;;;-1.46;64.17;102002.00;4939274;28;20031;-82
2024/01/13 03:44:36;;;;;;;0.10;0.10;;;;;;;-1.53;64.17;101972.22;4955629;28;20028;-82
2024/01/13 03:47:02;;;;;;;0.20;0.20;;;;;;;-1.52;64.16;101988.28;4923666;28;20026;-83
2024/01/13 03:49:27;;;;;;;0.10;0.10;;;;;;;-1.59;64.18;101976.28;4939514;28;20081;-83
2024/01/13 03:51:53;;;;;;;0.10;0.10;;;;;;;-1.49;64.52;101989.22;4939147;28;20030;-82
2024/01/13 03:54:18;;;;;;;0.20;0.20;;;;;;;-1.51;64.31;101983.25;4939488;28;20089;-82
2024/01/13 03:56:44;;;;;;;0.20;0.20;;;;;;;-1.79;64.98;101958.94;4939397;28;20030;-82
2024/01/13 03:59:12;;;;;;;0.20;0.20;;;;;;;-1.70;64.78;101978.59;4939263;28;20034;-82
2024/01/13 04:01:38;;;;;;;0.10;0.10;;;;;;;-1.65;64.60;101971.94;4939702;28;20109;-84
2024/01/13 04:04:03;;;;;;;0.20;0.20;;;;;;;-1.59;64.65;101982.22;4939337;28;20058;-82
2024/01/13 04:06:29;;;;;;;0.20;0.20;;;;;;;-1.62;64.99;101963.53;4938941;28;20051;-82
2024/01/13 04:08:54;;;;;;;0.10;0.10;;;;;;;-1.68;65.59;101966.78;4954547;28;20030;-83
2024/01/13 04:11:20;;;;;;;0.20;0.20;;;;;;;-1.57;65.14;101983.13;4939018;28;20046;-83
2024/01/13 04:13:45;;;;;;;0.20;0.20;;;;;;;-1.46;64.80;101974.06;4938818;28;20113;-82
2024/01/13 04:16:12;;;;;;;0.20;0.20;;;;;;;-1.49;65.14;101973.97;4938984;28;20034;-83
2024/01/13 04:18:38;;;;;;;0.20;0.20;;;;;;;-1.51;64.86;101955.34;4955072;28;20031;-83
2024/01/13 04:21:04;;;;;;;0.10;0.10;;;;;;;-1.40;65.16;101967.41;4923064;28;20031;-83
2024/01/13 04:23:29;;;;;;;0.10;0.10;;;;;;;-1.42;65.14;101982.59;4954684;28;20096;-83
2024/01/13 04:25:55;;;;;;;0.20;0.20;;;;;;;-1.54;65.04;101965.44;4922952;28;20037;-83
2024/01/13 04:28:20;;;;;;;0.20;0.20;;;;;;;-1.45;64.99;101963.09;4971761;28;20030;-83
2024/01/13 04:30:46;;;;;;;0.20;0.20;;;;;;;-1.37;64.91;101978.50;4938686;28;20027;-83
2024/01/13 04:33:11;;;;;;;0.20;0.20;;;;;;;-1.40;65.26;101975.00;4938701;28;20035;-83
2024/01/13 04:35:37;;;;;;;0.20;0.20;;;;;;;-1.37;65.67;101982.72;4954890;28;20034;-83
2024/01/13 04:38:02;;;;;;;0.10;0.10;;;;;;;-1.60;65.92;101988.13;4938420;28;20039;-83
2024/01/13 04:40:30;;;;;;;0.20;0.20;;;;;;;-1.71;66.45;101971.81;4922866;28;20033;-84
2024/01/13 04:42:55;;;;;;;0.20;0.20;;;;;;;-1.65;66.18;101971.94;4938871;28;20034;-83
2024/01/13 04:45:21;;;;;;;0.20;0.20;;;;;;;-1.61;66.25;101973.72;4955022;28;20097;-83
2024/01/13 04:47:46;;;;;;;0.20;0.20;;;;;;;-1.61;65.91;101961.03;4938550;28;20026;-83
2024/01/13 04:50:12;;;;;;;0.10;0.10;;;;;;;-1.58;66.03;101983.06;4938690;28;20114;-83
2024/01/13 04:52:37;;;;;;;0.10;0.10;;;;;;;-1.51;66.14;101990.88;4922243;28;20421;-83
2024/01/13 04:55:03;;;;;;;0.20;0.20;;;;;;;-1.62;66.11;101987.22;4938645;28;20058;-83
2024/01/13 04:57:29;;;;;;;0.20;0.20;;;;;;;-1.64;65.92;101968.59;4938788;28;20037;-83
2024/01/13 04:59:54;;;;;;;0.20;0.20;;;;;;;-1.59;66.09;101983.91;4922576;28;20035;-83
2024/01/13 05:02:20;;;;;;;0.20;0.20;;;;;;;-1.75;65.88;101965.81;4938632;28;20054;-83
2024/01/13 05:04:46;;;;;;;0.20;0.20;;;;;;;-1.66;65.98;101975.31;4954365;28;20053;-83
2024/01/13 05:07:11;;;;;;;0.20;0.20;;;;;;;-1.69;65.89;101979.44;4938008;28;20551;-83
2024/01/13 05:09:37;;;;;;;0.20;0.20;;;;;;;-1.76;65.83;101973.38;4938490;28;20062;-83
2024/01/13 05:12:03;;;;;;;0.20;0.20;;;;;;;-1.69;65.84;101985.38;4938798;28;20489;-84
2024/01/13 05:14:28;;;;;;;0.20;0.20;;;;;;;-1.70;65.54;101985.34;4922560;28;20027;-83
2024/01/13 05:16:54;;;;;;;0.20;0.20;;;;;;;-1.62;65.74;101996.53;4938529;28;20022;-83
2024/01/13 05:19:20;;;;;;;0.20;0.20;;;;;;;-1.64;65.52;101983.81;4942047;28;20030;-84
2024/01/13 05:21:45;;;;;;;0.20;0.20;;;;;;;-1.88;65.59;101953.66;4925974;28;20511;-83
2024/01/13 05:24:12;;;;;;;0.20;0.20;;;;;;;-1.93;66.07;101982.28;4942314;28;20031;-83
2024/01/13 05:26:38;;;;;;;0.10;0.10;;;;;;;-2.02;66.10;101968.56;4926472;28;20038;-83
2024/01/13 05:29:03;;;;;;;0.20;0.20;;;;;;;-1.86;65.98;101982.47;4942002;28;20027;-83
2024/01/13 05:31:29;;;;;;;0.20;0.20;;;;;;;-1.88;65.97;101983.22;4926181;28;20560;-82
2024/01/13 05:33:55;;;;;;;0.20;0.20;;;;;;;-1.93;66.06;101978.06;4941997;28;20390;-83
2024/01/13 05:36:21;;;;;;;0.20;0.20;;;;;;;-1.85;65.53;101984.19;4941853;28;20426;-83
2024/01/13 05:38:47;;;;;;;0.10;0.10;;;;;;;-1.84;65.79;101987.56;4942284;28;20045;-83
2024/01/13 05:41:12;;;;;;;0.20;0.20;;;;;;;-1.73;65.21;101998.81;4941711;28;20027;-83
2024/01/13 05:43:38;;;;;;;0.20;0.20;;;;;;;-1.79;65.34;101985.97;4926012;28;20085;-83
2024/01/13 05:46:03;;;;;;;0.20;0.20;;;;;;;-1.81;65.25;101996.09;4941787;28;20031;-83
2024/01/13 05:48:29;;;;;;;0.10;0.10;;;;;;;-1.84;65.47;101995.19;4925747;28;20089;-83
2024/01/13 05:50:54;;;;;;;0.20;0.20;;;;;;;-1.83;65.39;101982.53;4941502;28;20027;-83
2024/01/13 05:53:20;;;;;;;0.20;0.20;;;;;;;-1.68;65.00;101996.38;4957674;28;20085;-83
2024/01/13 05:55:45;;;;;;;0.20;0.20;;;;;;;-1.67;64.98;101993.91;4957209;28;20026;-83
2024/01/13 05:58:11;;;;;;;0.10;0.10;;;;;;;-1.65;64.93;101992.25;4941478;28;20026;-83
2024/01/13 06:00:37;;;;;;;0.10;0.10;;;;;;;-1.72;65.05;101982.78;4941543;28;20027;-83
2024/01/13 06:03:02;;;;;;;0.20;0.20;;;;;;;-1.79;64.87;101969.06;4941232;28;20019;-83
2024/01/13 06:05:28;;;;;;;0.10;0.10;;;;;;;-1.73;64.85;101984.47;4940875;28;20046;-83
2024/01/13 06:07:54;;;;;;;0.10;0.10;;;;;;;-1.60;65.36;101989.81;4925334;28;20122;-83
2024/01/13 06:10:19;;;;;;;0.20;0.20;;;;;;;-1.64;64.55;101976.19;4941242;28;20507;-83
2024/01/13 06:12:45;;;;;;;0.20;0.20;;;;;;;-1.59;65.52;102002.53;4941181;28;20026;-83
2024/01/13 06:15:11;;;;;;;0.20;0.20;;;;;;;-1.55;65.09;101994.16;4941792;28;20031;-83
2024/01/13 06:17:36;;;;;;;0.20;0.20;;;;;;;-1.39;64.77;102009.72;4925307;28;20081;-83
2024/01/13 06:20:02;;;;;;;0.20;0.20;;;;;;;-1.38;64.80;101993.66;4940793;28;20037;-83
2024/01/13 06:22:28;;;;;;;0.20;0.20;;;;;;;-1.35;64.69;101989.53;4941242;28;20035;-83
2024/01/13 06:24:53;;;;;;;0.20;0.20;;;;;;;-1.29;65.00;101991.31;4941258;28;20114;-83
2024/01/13 06:27:19;;;;;;;0.20;0.20;;;;;;;-1.27;64.19;101979.56;4941006;28;20097;-83
2024/01/13 06:29:44;;;;;;;0.10;0.10;;;;;;;-1.05;64.83;102002.00;4955490;28;20034;-83
2024/01/13 06:32:10;;;;;;;0.20;0.20;;;;;;;-1.06;64.26;102012.16;4940768;28;20037;-83
2024/01/13 06:34:35;;;;;;;0.20;0.20;;;;;;;-0.99;64.01;101986.03;4940705;28;20043;-82
2024/01/13 06:37:01;;;;;;;0.20;0.20;;;;;;;-0.87;63.95;101988.84;4956881;28;20030;-83
2024/01/13 06:39:26;;;;;;;0.20;0.20;;;;;;;-0.72;63.74;101998.41;4925036;28;20051;-83
2024/01/13 06:41:52;;;;;;;0.10;0.10;;;;;;;-0.68;62.82;102001.06;4924719;28;20038;-83
2024/01/13 06:44:17;;;;;;;0.20;0.20;;;;;;;-0.76;62.95;101978.88;4924823;28;20034;-83
2024/01/13 06:46:43;;;;;;;0.10;0.10;;;;;;;-0.64;63.18;102000.28;4940719;28;20030;-83
2024/01/13 06:49:09;;;;;;;0.20;0.20;;;;;;;-0.64;63.11;101994.34;4940148;28;20037;-84
2024/01/13 06:51:34;;;;;;;0.20;0.20;;;;;;;-0.76;63.38;101983.97;4924768;28;20440;-83
2024/01/13 06:54:00;;;;;;;0.17;0.17;;;;;;;-0.73;63.29;101984.88;4940248;28;20521;-83
2024/01/13 06:56:25;;;;;;;0.10;0.10;;;;;;;-0.85;63.73;101973.63;4956506;28;20397;-83
2024/01/13 06:58:51;;;;;;;0.20;0.20;;;;;;;-0.69;63.40;101995.94;4940192;28;20540;-83
2024/01/13 07:01:16;;;;;;;0.20;0.20;;;;;;;-0.71;63.68;101987.44;4940573;28;20037;-83
2024/01/13 07:03:42;;;;;;;0.10;0.10;;;;;;;-0.71;63.78;101987.44;4940090;28;20031;-82
2024/01/13 07:06:08;;;;;;;0.20;0.20;;;;;;;-0.62;64.01;102003.72;4940183;28;20058;-83
2024/01/13 07:08:34;;;;;;;0.20;0.20;;;;;;;-0.55;63.86;101999.59;4924114;28;20500;-82
2024/01/13 07:10:59;;;;;;;0.20;0.20;;;;;;;-0.65;63.88;102006.19;4940347;28;20023;-83
2024/01/13 07:13:25;;;;;;;0.20;0.20;;;;;;;-0.81;64.04;101988.06;4940312;28;20031;-83
2024/01/13 07:15:51;;;;;;;0.20;0.20;;;;;;;-0.79;64.70;101996.59;4940038;28;20485;-83
2024/01/13 07:18:16;;;;;;;0.20;0.20;;;;;;;-0.72;64.50;102001.81;4973042;28;20561;-83
2024/01/13 07:20:42;;;;;;;0.10;0.10;;;;;;;-0.58;64.15;101994.47;4939800;28;20061;-83
2024/01/13 07:23:07;;;;;;;0.10;0.10;;;;;;;-0.51;64.17;101990.34;4939888;28;20089;-83
2024/01/13 07:25:33;;;;;;;0.20;0.20;;;;;;;-0.28;63.81;101995.84;4955790;28;20027;-83
2024/01/13 07:27:59;;;;;;;0.20;0.20;;;;;;;-0.23;64.22;102002.72;4939964;28;20444;-83
2024/01/13 07:30:25;;;;;;;0.20;0.20;;;;;;;-0.10;64.21;101988.50;4939604;28;20093;-83
2024/01/13 07:32:50;;;;;;;0.20;0.20;;;;;;;-0.05;63.91;101992.00;4939485;28;20038;-83
2024/01/13 07:35:16;;;;;;;0.15;0.15;;;;;;;0.00;63.65;101985.31;4939445;28;20035;-83
2024/01/13 07:37:43;;;;;;;0.20;0.20;;;;;;;0.02;63.56;101993.81;4955387;28;20547;-83
2024/01/13 07:40:09;;;;;;;0.20;0.20;;;;;;;-0.06;63.69;101967.41;4939883;28;20031;-83
2024/01/13 07:42:38;;;;;;;0.20;0.20;;;;;;;-0.11;64.35;101985.09;4955571;28;20620;-83
2024/01/13 07:45:04;;;;;;;0.20;0.20;;;;;;;0.09;64.53;101982.88;4939658;28;20042;-83
2024/01/13 07:47:30;;;;;;;0.20;0.20;;;;;;;0.08;64.42;101976.09;4955188;28;20074;-83
2024/01/13 07:49:55;;;;;;;0.20;0.20;;;;;;;0.06;64.16;101972.66;4923413;28;20035;-83
2024/01/13 07:52:21;;;;;;;0.10;0.10;;;;;;;0.06;64.70;101982.00;4955399;28;20089;-83
2024/01/13 07:54:46;;;;;;;0.10;0.10;;;;;;;0.06;64.27;101969.28;4923479;28;20031;-83
2024/01/13 07:57:14;;;;;;;0.20;0.20;;;;;;;0.24;63.90;101984.81;4955335;28;20034;-83
2024/01/13 07:59:39;;;;;;;0.20;0.20;;;;;;;0.05;64.75;101977.75;4939911;28;20031;-83
2024/01/13 08:02:05;;;;;;;0.10;0.10;;;;;;;0.08;64.69;101968.44;4938752;28;20038;-83
2024/01/13 08:04:30;;;;;;;0.20;0.20;;;;;;;0.15;64.91;101966.88;4955078;28;20023;-83
2024/01/13 08:06:56;;;;;;;0.20;0.20;;;;;;;0.12;64.64;101965.16;4955070;28;20030;-83
2024/01/13 08:09:22;;;;;;;0.10;0.10;;;;;;;0.18;64.84;101965.22;4939258;28;20539;-83
2024/01/13 08:11:48;;;;;;;0.20;0.20;;;;;;;0.23;64.96;101952.56;4938950;28;20033;-83
2024/01/13 08:14:15;;;;;;;0.20;0.20;;;;;;;0.27;64.46;101950.09;4923028;28;20030;-83
2024/01/13 08:16:42;;;;;;;0.20;0.20;;;;;;;0.42;64.72;101953.69;4938883;28;20105;-84
2024/01/13 08:19:09;;;;;;;0.20;0.20;;;;;;;0.40;64.45;101970.66;4938879;28;20074;-83
2024/01/13 08:21:35;;;;;;;0.20;0.20;;;;;;;0.40;64.22;101952.81;4939254;28;20077;-83
2024/01/13 08:24:01;;;;;;;0.20;0.20;;;;;;;0.62;63.93;101962.47;4922932;28;20501;-84
2024/01/13 08:26:26;;;;;;;0.20;0.20;;;;;;;0.79;64.05;101961.00;4954896;28;20046;-84
2024/01/13 08:28:52;;;;;;;0.20;0.20;;;;;;;0.78;63.45;101969.44;4938473;28;20129;-84
2024/01/13 08:31:17;;;;;;;0.20;0.20;;;;;;;0.76;62.81;101968.56;4938820;28;20035;-83
2024/01/13 08:33:43;;;;;;;0.20;0.20;;;;;;;0.78;62.21;101968.59;4938555;28;20039;-84
2024/01/13 08:36:08;;;;;;;0.10;0.10;;;;;;;0.78;62.28;101961.78;4954431;28;20034;-84
2024/01/13 08:38:34;;;;;;;0.20;0.20;;;;;;;0.88;62.37;101969.56;4938584;28;20031;-84
2024/01/13 08:40:59;;;;;;;0.20;0.20;;;;;;;0.84;61.76;101982.28;4938581;28;20023;-84
2024/01/13 08:43:25;;;;;;;0.17;0.17;;;;;;;0.72;61.22;101966.84;4938517;28;20033;-83
2024/01/13 08:45:51;;;;;;;0.20;0.20;;;;;;;0.75;61.98;101960.91;4922296;28;20027;-83
2024/01/13 08:48:16;;;;;;;0.20;0.20;;;;;;;0.83;61.13;101967.81;4938433;28;20035;-83
2024/01/13 08:50:42;;;;;;;0.10;0.10;;;;;;;0.89;61.79;101961.09;4938695;28;20035;-84
2024/01/13 08:53:08;;;;;;;0.20;0.20;;;;;;;0.91;60.80;101957.72;4922189;28;20035;-84
2024/01/13 08:55:33;;;;;;;0.20;0.20;;;;;;;1.00;60.91;101973.13;4954602;28;20033;-84
2024/01/13 08:57:59;;;;;;;0.20;0.20;;;;;;;1.01;61.38;101968.88;4938387;28;20023;-84
2024/01/13 09:00:25;;;;;;;0.20;0.20;;;;;;;1.00;60.91;101960.38;4922287;28;20031;-84
2024/01/13 09:02:50;;;;;;;0.20;0.20;;;;;;;0.90;61.20;101948.38;4938437;28;20027;-84
2024/01/13 09:05:16;;;;;;;0.20;0.20;;;;;;;1.12;62.17;101957.13;4953892;28;20051;-83
2024/01/13 09:07:41;;;;;;;0.15;0.15;;;;;;;1.24;61.82;101947.06;4938077;28;20027;-84
2024/01/13 09:10:07;;;;;;;0.10;0.10;;;;;;;1.08;60.72;101957.91;4938090;28;20035;-83
2024/01/13 09:12:32;;;;;;;0.20;0.20;;;;;;;1.26;60.89;101950.47;4922682;28;20034;-84
2024/01/13 09:14:58;;;;;;;0.20;0.20;;;;;;;1.34;60.39;101953.09;4922180;28;20421;-84
2024/01/13 09:17:23;;;;;;;0.20;0.20;;;;;;;1.42;60.32;101942.13;4938431;28;20023;-85
2024/01/13 09:19:49;;;;;;;0.20;0.20;;;;;;;1.22;60.53;101910.50;4938387;28;20031;-84
2024/01/13 09:22:15;;;;;;;0.20;0.20;;;;;;;1.43;59.62;101935.34;4938402;28;20141;-83
2024/01/13 09:24:43;;;;;;;0.20;0.20;;;;;;;1.44;59.75;101929.41;4922346;28;20023;-84
2024/01/13 09:27:09;;;;;;;0.20;0.20;;;;;;;1.46;59.23;101929.41;4922326;28;20118;-83
2024/01/13 09:29:34;;;;;;;0.20;0.20;;;;;;;1.53;58.97;101918.44;4937688;28;20118;-83
2024/01/13 09:32:00;;;;;;;0.20;0.20;;;;;;;1.44;59.88;101907.31;4938513;28;20091;-83
2024/01/13 09:34:25;;;;;;;0.20;0.20;;;;;;;1.61;59.41;101916.81;4937776;28;20046;-83
2024/01/13 09:36:51;;;;;;;0.20;0.20;;;;;;;1.63;59.46;101902.38;4953835;28;20027;-84
2024/01/13 09:39:17;;;;;;;0.20;0.20;;;;;;;1.63;58.64;101902.38;4954152;28;20038;-84
2024/01/13 09:41:43;;;;;;;0.10;0.10;;;;;;;1.59;58.42;101913.41;4922307;28;20027;-84
2024/01/13 09:44:22;;;;;;;0.20;0.20;;;;;;;1.62;58.06;101898.97;4937919;28;20474;-84
2024/01/13 09:46:49;;;;;;;0.10;0.10;;;;;;;1.62;58.02;101893.00;4954244;28;20038;-84
2024/01/13 09:49:16;;;;;;;0.10;0.10;;;;;;;1.66;57.66;101895.56;4938392;28;20027;-84
2024/01/13 09:51:41;;;;;;;0.10;0.10;;;;;;;1.65;57.85;101903.22;4922124;28;20042;-83
2024/01/13 09:54:22;;;;;;;0.20;0.20;;;;;;;1.82;56.91;101901.66;4938130;28;20026;-84
2024/01/13 09:56:48;;;;;;;0.10;0.10;;;;;;;1.77;56.48;101879.50;4922131;28;20512;-84
2024/01/13 09:59:13;;;;;;;0.20;0.20;;;;;;;1.95;55.14;101860.06;4937266;28;20038;-84
2024/01/13 10:01:39;;;;;;;0.10;0.10;;;;;;;2.25;56.77;101889.16;4938032;28;20027;-84
2024/01/13 10:04:05;;;;;;;0.20;0.20;;;;;;;2.40;55.33;101873.94;4939912;28;20454;-85
2024/01/13 10:06:39;;;;;;;0.20;0.20;;;;;;;2.39;53.76;101869.69;4956996;28;20644;-84
2024/01/13 10:09:06;;;;;;;0.20;0.20;;;;;;;2.63;53.45;101875.72;4941192;28;20485;-85
2024/01/13 10:11:31;;;;;;;0.10;0.10;;;;;;;2.56;53.11;101860.38;4940903;28;20027;-85
2024/01/13 10:14:04;;;;;;;0.10;0.10;;;;;;;2.55;53.16;101853.53;4957286;28;20132;-84
2024/01/13 10:16:31;;;;;;;0.20;0.20;;;;;;;2.71;52.18;101879.16;4941387;28;20492;-84
2024/01/13 10:19:02;;;;;;;0.20;0.20;;;;;;;2.59;50.89;101875.72;4957112;28;20496;-84
2024/01/13 10:21:28;;;;;;;0.20;0.20;;;;;;;2.49;51.51;101853.53;4957166;28;20029;-84
2024/01/13 10:23:55;;;;;;;0.20;0.20;;;;;;;2.63;52.01;101876.56;4940756;28;20046;-84
2024/01/13 10:26:21;;;;;;;0.20;0.20;;;;;;;2.44;53.82;101867.13;4940821;28;20019;-84
2024/01/13 10:28:48;;;;;;;0.20;0.20;;;;;;;2.61;53.04;101874.88;4940777;28;20555;-84
2024/01/13 10:31:15;;;;;;;0.20;0.20;;;;;;;2.39;53.99;101877.34;4940857;28;20408;-84
2024/01/13 10:33:41;;;;;;;0.20;0.20;;;;;;;2.33;53.87;101866.22;4924879;28;20042;-83
2024/01/13 10:36:09;;;;;;;0.20;0.20;;;;;;;2.22;54.29;101866.19;4925048;28;20031;-84
2024/01/13 10:38:35;;;;;;;0.20;0.20;;;;;;;2.25;53.95;101868.75;4925831;28;20038;-84
2024/01/13 10:41:00;;;;;;;0.20;0.20;;;;;;;2.26;53.43;101890.88;4956421;28;20027;-84
2024/01/13 10:43:26;;;;;;;0.20;0.20;;;;;;;2.08;54.51;101863.56;4956740;28;20046;-85
2024/01/13 10:45:52;;;;;;;0.20;0.20;;;;;;;2.18;54.33;101870.44;4940718;28;20082;-83
2024/01/13 10:48:27;;;;;;;0.20;0.20;;;;;;;2.04;54.79;101835.44;4924855;28;20034;-85
2024/01/13 10:50:52;;;;;;;0.20;0.20;;;;;;;2.14;55.04;101849.97;4925220;28;20481;-84
2024/01/13 10:53:24;;;;;;;0.10;0.10;;;;;;;2.20;55.87;101880.66;4940509;28;20034;-83
2024/01/13 10:55:50;;;;;;;0.20;0.20;;;;;;;2.20;54.68;101883.19;4940644;28;20493;-84
2024/01/13 10:58:15;;;;;;;0.20;0.20;;;;;;;2.14;54.33;101862.72;4924542;28;20122;-83
2024/01/13 11:00:41;;;;;;;0.20;0.20;;;;;;;1.95;54.72;101849.84;4956508;28;20027;-84
2024/01/13 11:03:07;;;;;;;0.20;0.20;;;;;;;1.93;55.61;101840.50;4940282;28;20047;-84
2024/01/13 11:05:33;;;;;;;0.10;0.10;;;;;;;2.20;54.60;101850.00;4940536;28;20059;-84
2024/01/13 11:07:58;;;;;;;0.17;0.17;;;;;;;2.26;54.38;101865.34;4940051;28;20121;-84
2024/01/13 11:10:26;;;;;;;0.20;0.20;;;;;;;2.21;54.60;101847.44;4939647;28;20030;-84
2024/01/13 11:13:02;;;;;;;0.20;0.20;;;;;;;2.14;54.70;101849.97;4940187;28;20034;-84
2024/01/13 11:15:28;;;;;;;0.20;0.20;;;;;;;2.20;54.26;101855.13;4939836;28;20573;-85
2024/01/13 11:17:53;;;;;;;0.20;0.20;;;;;;;2.14;53.64;101852.50;4955894;28;20117;-84
2024/01/13 11:20:19;;;;;;;0.20;0.20;;;;;;;1.96;54.00;101826.03;4956496;28;20039;-84